Tropical Cyclones
[Index]
Main Index Home Page Stock Weather Photos Extreme Storms Discussion Storm News and Storm Chasing Reports Tropical Cyclones / Hurricanes / Typhoons Weather Data and Links Wild Fires / Bushfires Weather Observation Techniques Weather Picture Catalogue Tornado Pictures and Reports Stock Video Footage and DVDs for sale
Season 2004-2005 Tropical Cyclone PERCY Track Map
Season 2004-2005 Summaries: [BoM-AU] [JTWC-AU] [JTWC-SIO] [JTWC-SPAC] [JTWC-SH]
<<- Previous TC | JTWC 2004-2005 Season | Next TC ->>

click for intensity scale information  Lat/long Grid: Show Hide

 Date Labels: Show Hide

Joint Typhoon Warning Centre Cyclone Data

Name: PERCY

24 Feb 2005 18:00 UTC to 05 Mar 2005 00:00 UTC

    date/time    lat    long     hPa   cat  kts
2005-02-24 18    7.9   179.5W   1002         25          
2005-02-25 00    8.4   178.5W    991    1    45          
2005-02-25 06    8.7   177.4W    984    2    55          
2005-02-25 06    8.7   177.4W    984    2    55          
2005-02-25 12    8.9   176.3W    972    2    70          
2005-02-25 12    8.9   176.3W    972    2    70          
2005-02-25 12    8.9   176.3W    972    2    70          
2005-02-25 18    9.0   175.0W    954    3    90          
2005-02-25 18    9.0   175.0W    954    3    90          
2005-02-25 18    9.0   175.0W    954    3    90          
2005-02-26 00    9.4   173.8W    954    3    90          
2005-02-26 00    9.4   173.8W    954    3    90          
2005-02-26 00    9.4   173.8W    954    3    90          
2005-02-26 06    9.8   172.7W    954    3    90          
2005-02-26 06    9.8   172.7W    954    3    90          
2005-02-26 06    9.8   172.7W    954    3    90          
2005-02-26 12   10.2   171.5W    954    3    90          
2005-02-26 12   10.2   171.5W    954    3    90          
2005-02-26 12   10.2   171.5W    954    3    90          
2005-02-26 18   10.5   170.7W    949    3    95          
2005-02-26 18   10.5   170.7W    949    3    95          
2005-02-26 18   10.5   170.7W    949    3    95          
2005-02-27 00   10.7   169.9W    933    4   110          
2005-02-27 00   10.7   169.9W    933    4   110          
2005-02-27 00   10.7   169.9W    933    4   110          
2005-02-27 06   10.8   168.8W    927    4   115          
2005-02-27 06   10.8   168.8W    927    4   115          
2005-02-27 06   10.8   168.8W    927    4   115          
2005-02-27 12   10.9   167.8W    927    4   115          
2005-02-27 12   10.9   167.8W    927    4   115          
2005-02-27 12   10.9   167.8W    927    4   115          
2005-02-27 18   11.0   166.8W    927    4   115          
2005-02-27 18   11.0   166.8W    927    4   115          
2005-02-27 18   11.0   166.8W    927    4   115          
2005-02-28 00   11.4   166.0W    938    4   105          
2005-02-28 00   11.4   166.0W    938    4   105          
2005-02-28 00   11.4   166.0W    938    4   105          
2005-02-28 06   11.8   165.4W    938    4   105          
2005-02-28 06   11.8   165.4W    938    4   105          
2005-02-28 06   11.8   165.4W    938    4   105          
2005-02-28 12   12.1   165.1W    938    4   105          
2005-02-28 12   12.1   165.1W    938    4   105          
2005-02-28 12   12.1   165.1W    938    4   105          
2005-02-28 18   12.5   165.0W    938    4   105          
2005-02-28 18   12.5   165.0W    938    4   105          
2005-02-28 18   12.5   165.0W    938    4   105          
2005-03-01 00   13.1   165.0W    933    4   110          
2005-03-01 00   13.1   165.0W    933    4   110          
2005-03-01 00   13.1   165.0W    933    4   110          
2005-03-01 06   13.6   165.0W    927    4   115          
2005-03-01 06   13.6   165.0W    927    4   115          
2005-03-01 06   13.6   165.0W    927    4   115          
2005-03-01 12   14.1   165.0W    927    4   115          
2005-03-01 12   14.1   165.0W    927    4   115          
2005-03-01 12   14.1   165.0W    927    4   115          
2005-03-01 18   14.9   165.0W    916    5   125          
2005-03-01 18   14.9   165.0W    916    5   125          
2005-03-01 18   14.9   165.0W    916    5   125          
2005-03-02 00   15.6   165.2W    898    5   140          
2005-03-02 00   15.6   165.2W    898    5   140          
2005-03-02 00   15.6   165.2W    898    5   140          
2005-03-02 06   16.4   165.3W    898    5   140          
2005-03-02 06   16.4   165.3W    898    5   140          
2005-03-02 06   16.4   165.3W    898    5   140          
2005-03-02 12   17.4   165.2W    898    5   140          
2005-03-02 12   17.4   165.2W    898    5   140          
2005-03-02 12   17.4   165.2W    898    5   140          
2005-03-02 18   18.5   165.1W    910    5   130          
2005-03-02 18   18.5   165.1W    910    5   130          
2005-03-02 18   18.5   165.1W    910    5   130          
2005-03-03 00   19.6   164.8W    916    5   125          
2005-03-03 00   19.6   164.8W    916    5   125          
2005-03-03 00   19.6   164.8W    916    5   125          
2005-03-03 06   20.5   164.2W    933    4   110          
2005-03-03 06   20.5   164.2W    933    4   110          
2005-03-03 06   20.5   164.2W    933    4   110          
2005-03-03 12   21.5   163.7W    949    3    95          
2005-03-03 12   21.5   163.7W    949    3    95          
2005-03-03 12   21.5   163.7W    949    3    95          
2005-03-03 18   22.6   163.0W    954    3    90          
2005-03-03 18   22.6   163.0W    954    3    90          
2005-03-03 18   22.6   163.0W    954    3    90          
2005-03-04 00   23.4   161.9W    967    3    75          
2005-03-04 00   23.4   161.9W    967    3    75          
2005-03-04 00   23.4   161.9W    967    3    75          
2005-03-04 06   24.0   160.6W    976    2    65          
2005-03-04 06   24.0   160.6W    976    2    65          
2005-03-04 06   24.0   160.6W    976    2    65          
2005-03-04 12   24.5   158.9W    980    2    60          
2005-03-04 12   24.5   158.9W    980    2    60          
2005-03-04 18   25.0   156.6W    991    1    45          
2005-03-05 00   25.6   153.7W    994    1    40          
Winds are 1-min average.

Tropical cyclone tracks developed by Michael Bath using data from the Joint Typhoon Warning Centre Best Tracks and Google Maps.


[Australian Severe Weather index] [Copyright Notice] [Email Contacts] [Search This Site] [Privacy Policy]
Document: tropical_cyclone_percy.htm Updated: 28 June 2017